createdAt,value
2023-03-21T04:01:51.992Z,9.60
2023-03-21T04:04:22.916Z,9.60
2023-03-21T04:06:53.386Z,9.60
2023-03-21T04:09:37.444Z,9.60
2023-03-21T04:12:12.717Z,9.60
2023-03-21T04:14:47.160Z,9.60
2023-03-21T04:17:19.835Z,9.70
2023-03-21T04:19:55.587Z,9.70
2023-03-21T04:22:25.859Z,9.70
2023-03-21T04:24:54.188Z,9.70
2023-03-21T04:27:22.195Z,9.80
2023-03-21T04:30:09.806Z,9.80
2023-03-21T04:32:56.883Z,9.90
2023-03-21T04:35:26.518Z,9.80
2023-03-21T04:37:54.936Z,9.80
2023-03-21T04:40:24.639Z,9.80
2023-03-21T04:42:53.000Z,9.90
2023-03-21T04:45:20.956Z,9.90
2023-03-21T04:47:48.947Z,9.90
2023-03-21T04:50:18.546Z,9.90
2023-03-21T04:52:46.738Z,9.90
2023-03-21T04:55:14.656Z,9.90
2023-03-21T04:57:42.504Z,10.00
2023-03-21T05:00:13.084Z,10.00
2023-03-21T05:02:41.133Z,9.90
2023-03-21T05:05:11.319Z,10.00
2023-03-21T05:07:41.335Z,9.90
2023-03-21T05:10:12.291Z,10.00
2023-03-21T05:12:41.936Z,10.00
2023-03-21T05:15:10.739Z,10.00
2023-03-21T05:17:38.906Z,10.00
2023-03-21T05:20:09.634Z,10.00
2023-03-21T05:22:40.415Z,9.90
2023-03-21T05:25:14.049Z,9.90
2023-03-21T05:28:09.332Z,9.90
2023-03-21T05:30:37.709Z,9.90
2023-03-21T05:33:06.094Z,9.90
2023-03-21T05:35:34.092Z,9.90
2023-03-21T05:38:05.462Z,9.90
2023-03-21T05:40:47.708Z,9.90
2023-03-21T05:43:15.690Z,9.90
2023-03-21T05:45:44.238Z,9.90
2023-03-21T05:48:12.434Z,9.90
2023-03-21T05:50:57.449Z,9.90
2023-03-21T05:53:25.337Z,9.90
2023-03-21T05:55:55.299Z,10.00
2023-03-21T05:58:41.945Z,10.00
2023-03-21T06:01:10.218Z,10.00
2023-03-21T06:03:42.073Z,10.00
2023-03-21T06:06:16.922Z,10.00
2023-03-21T06:08:54.335Z,10.00
2023-03-21T06:11:29.606Z,10.10
2023-03-21T06:14:23.082Z,10.10
2023-03-21T06:17:08.829Z,10.10
2023-03-21T06:19:43.070Z,10.20
2023-03-21T06:22:20.256Z,10.20
2023-03-21T06:24:48.280Z,10.20
2023-03-21T06:27:19.765Z,10.20
2023-03-21T06:29:55.974Z,10.20
2023-03-21T06:32:24.228Z,10.30
2023-03-21T06:34:57.111Z,10.40
2023-03-21T06:37:26.783Z,10.40
2023-03-21T06:39:55.760Z,10.40
2023-03-21T06:42:25.530Z,10.40
2023-03-21T06:44:59.335Z,10.40
2023-03-21T06:47:28.342Z,10.50
2023-03-21T06:49:56.924Z,10.40
2023-03-21T06:52:24.806Z,10.50
2023-03-21T06:54:54.902Z,10.50
2023-03-21T06:57:22.942Z,10.50
2023-03-21T06:59:53.093Z,10.50
2023-03-21T07:02:22.872Z,10.60
2023-03-21T07:05:14.000Z,10.70
2023-03-21T07:07:43.095Z,10.70
2023-03-21T07:10:12.191Z,10.70
2023-03-21T07:12:52.903Z,10.70
2023-03-21T07:15:24.405Z,10.60
2023-03-21T07:17:52.869Z,10.70
2023-03-21T07:20:21.074Z,10.70
2023-03-21T07:22:49.982Z,10.90
2023-03-21T07:25:20.063Z,10.90
2023-03-21T07:27:48.187Z,10.90
2023-03-21T07:30:16.682Z,10.90
2023-03-21T07:32:47.562Z,10.90
2023-03-21T07:35:18.247Z,11.00
2023-03-21T07:37:46.261Z,10.90
2023-03-21T07:40:17.209Z,10.90
2023-03-21T07:42:45.604Z,10.80
2023-03-21T07:45:16.497Z,10.70
2023-03-21T07:47:48.448Z,10.60
2023-03-21T07:50:16.662Z,10.70
2023-03-21T07:52:46.109Z,10.70
2023-03-21T07:55:14.003Z,10.70
2023-03-21T07:57:41.894Z,10.80
2023-03-21T08:00:11.047Z,10.90
2023-03-21T08:02:43.210Z,10.90
2023-03-21T08:05:12.612Z,10.90
2023-03-21T08:07:40.559Z,10.90
2023-03-21T08:10:11.541Z,10.90
2023-03-21T08:12:39.389Z,11.00
2023-03-21T08:15:08.454Z,11.10
2023-03-21T08:17:38.032Z,11.30
2023-03-21T08:20:08.930Z,11.30
2023-03-21T08:22:38.592Z,11.40
2023-03-21T08:25:08.727Z,11.20
2023-03-21T08:27:36.618Z,11.00
2023-03-21T08:30:05.068Z,11.00
2023-03-21T08:32:33.669Z,11.10
2023-03-21T08:35:02.677Z,11.30
2023-03-21T08:37:31.076Z,11.30
2023-03-21T08:40:00.429Z,11.30
2023-03-21T08:42:28.368Z,11.30
2023-03-21T08:44:56.202Z,11.40
2023-03-21T08:47:24.042Z,11.50
2023-03-21T08:49:51.892Z,11.50
2023-03-21T08:52:19.714Z,11.40
2023-03-21T08:54:48.454Z,11.40
2023-03-21T08:57:17.781Z,11.50
2023-03-21T08:59:45.790Z,11.50
2023-03-21T09:02:15.684Z,11.60
2023-03-21T09:04:44.740Z,11.70
2023-03-21T09:07:14.894Z,11.70
2023-03-21T09:09:42.821Z,11.70
2023-03-21T09:12:11.030Z,11.70
2023-03-21T09:14:41.193Z,11.60
2023-03-21T09:17:09.154Z,11.60
2023-03-21T09:19:38.813Z,11.60
2023-03-21T09:22:11.054Z,11.60
2023-03-21T09:24:38.920Z,11.70
2023-03-21T09:27:07.052Z,11.80
2023-03-21T09:29:35.529Z,11.90
2023-03-21T09:32:06.896Z,12.00
2023-03-21T09:34:36.946Z,12.10
2023-03-21T09:37:11.183Z,12.00
2023-03-21T09:39:39.234Z,11.80
2023-03-21T09:42:19.337Z,11.80
2023-03-21T09:44:58.875Z,11.80
2023-03-21T09:47:34.707Z,11.70
2023-03-21T09:50:14.850Z,11.70
2023-03-21T09:52:48.019Z,11.60
2023-03-21T09:55:20.037Z,11.70
2023-03-21T09:57:50.419Z,11.70
2023-03-21T10:00:24.866Z,11.70
2023-03-21T10:03:06.703Z,11.70
2023-03-21T10:05:35.714Z,11.80
2023-03-21T10:08:07.757Z,11.80
2023-03-21T10:10:39.147Z,11.80
2023-03-21T10:13:14.725Z,11.80
2023-03-21T10:15:42.781Z,11.70
2023-03-21T10:18:20.415Z,11.70
2023-03-21T10:20:48.281Z,11.80
2023-03-21T10:23:19.986Z,11.80
2023-03-21T10:25:51.288Z,11.80
2023-03-21T10:28:22.196Z,11.90
2023-03-21T10:30:52.483Z,11.80
2023-03-21T10:33:25.808Z,11.90
2023-03-21T10:35:59.642Z,11.70
2023-03-21T10:38:29.574Z,11.70
2023-03-21T10:40:57.524Z,11.70
2023-03-21T10:43:35.259Z,11.70
2023-03-21T10:46:10.471Z,11.70
2023-03-21T10:48:41.880Z,11.50
2023-03-21T10:51:18.736Z,11.30
2023-03-21T10:53:51.655Z,11.30
2023-03-21T10:56:23.699Z,11.20
2023-03-21T10:58:52.680Z,11.10
2023-03-21T11:01:30.293Z,11.20
2023-03-21T11:04:02.655Z,11.40
2023-03-21T11:06:32.728Z,11.40
2023-03-21T11:09:05.982Z,11.50
2023-03-21T11:11:39.330Z,11.50
2023-03-21T11:14:09.363Z,11.50
2023-03-21T11:16:41.530Z,11.50
2023-03-21T11:19:16.889Z,11.70
2023-03-21T11:21:46.317Z,11.90
2023-03-21T11:24:16.210Z,12.00
2023-03-21T11:26:45.798Z,12.10
2023-03-21T11:29:30.041Z,12.10
2023-03-21T11:32:02.795Z,12.30
2023-03-21T11:34:39.900Z,12.40
2023-03-21T11:37:21.047Z,12.40
2023-03-21T11:39:48.886Z,12.50
2023-03-21T11:42:29.134Z,12.60
2023-03-21T11:45:12.728Z,12.60
2023-03-21T11:47:40.822Z,12.40
2023-03-21T11:50:19.572Z,12.50
2023-03-21T11:52:56.189Z,12.50
2023-03-21T11:55:36.974Z,12.50
2023-03-21T11:58:15.422Z,12.50
2023-03-21T12:00:54.638Z,12.60
2023-03-21T12:03:47.090Z,12.70
2023-03-21T12:06:23.937Z,12.50
2023-03-21T12:09:03.814Z,12.20
2023-03-21T12:11:39.605Z,12.30
2023-03-21T12:14:14.632Z,12.20
2023-03-21T12:16:57.591Z,12.40
2023-03-21T12:19:51.412Z,12.20
2023-03-21T12:22:29.755Z,12.30
2023-03-21T12:24:58.854Z,12.20
2023-03-21T12:27:38.236Z,12.20
2023-03-21T12:30:20.659Z,12.40
2023-03-21T12:32:58.348Z,12.40
2023-03-21T12:35:36.891Z,12.50
2023-03-21T12:38:17.066Z,12.60
2023-03-21T12:41:07.311Z,12.60
2023-03-21T12:43:45.275Z,12.50
2023-03-21T12:46:19.740Z,12.60
2023-03-21T12:48:52.724Z,12.60
2023-03-21T12:51:25.145Z,12.50
2023-03-21T12:54:00.107Z,12.60
2023-03-21T12:56:33.525Z,12.50
2023-03-21T12:59:09.012Z,12.40
2023-03-21T13:01:40.079Z,12.40
2023-03-21T13:04:22.389Z,12.40
2023-03-21T13:06:55.397Z,12.30
2023-03-21T13:09:37.572Z,12.30
2023-03-21T13:12:27.033Z,12.30
2023-03-21T13:15:07.819Z,12.30
2023-03-21T13:17:44.057Z,12.30
2023-03-21T13:20:20.547Z,12.30
2023-03-21T13:22:48.506Z,12.30
2023-03-21T13:25:23.028Z,12.30
2023-03-21T13:27:55.409Z,12.40
2023-03-21T13:30:26.377Z,12.40
2023-03-21T13:33:04.939Z,12.40
2023-03-21T13:35:38.863Z,12.40
2023-03-21T13:38:13.628Z,12.40
2023-03-21T13:40:46.780Z,12.40
2023-03-21T13:43:39.948Z,12.40
2023-03-21T13:46:09.790Z,12.30
2023-03-21T13:48:57.785Z,12.40
2023-03-21T13:51:47.164Z,12.40
2023-03-21T13:54:24.238Z,12.50
2023-03-21T13:56:57.775Z,12.50
2023-03-21T13:59:39.416Z,12.50
2023-03-21T14:02:29.771Z,12.50
2023-03-21T14:05:06.642Z,12.50
2023-03-21T14:07:36.697Z,12.50
2023-03-21T14:10:09.334Z,12.60
2023-03-21T14:12:43.053Z,12.50
2023-03-21T14:15:19.101Z,12.50
2023-03-21T14:17:55.507Z,12.40
2023-03-21T14:20:26.355Z,12.30
2023-03-21T14:22:54.567Z,12.20
2023-03-21T14:25:29.252Z,12.20
2023-03-21T14:28:04.801Z,12.10
2023-03-21T14:30:34.899Z,12.00
2023-03-21T14:33:09.169Z,12.00
2023-03-21T14:35:37.596Z,12.10
2023-03-21T14:38:08.842Z,12.20
2023-03-21T14:40:37.460Z,12.30
2023-03-21T14:43:07.427Z,12.40
2023-03-21T14:45:38.361Z,12.50
2023-03-21T14:48:09.621Z,12.60
2023-03-21T14:50:41.675Z,12.50
2023-03-21T14:53:15.399Z,12.50
2023-03-21T14:55:45.261Z,12.60
2023-03-21T14:58:17.892Z,12.60
2023-03-21T15:00:49.377Z,12.70
2023-03-21T15:03:18.604Z,12.70
2023-03-21T15:05:47.365Z,12.60
2023-03-21T15:08:17.288Z,12.60
2023-03-21T15:11:06.298Z,12.60
2023-03-21T15:13:38.532Z,12.60
2023-03-21T15:16:09.092Z,12.50
2023-03-21T15:18:39.728Z,12.60
2023-03-21T15:21:12.174Z,12.60
2023-03-21T15:23:41.665Z,12.60
2023-03-21T15:26:15.730Z,12.40
2023-03-21T15:28:49.318Z,12.50
2023-03-21T15:31:19.704Z,12.50
2023-03-21T15:33:48.774Z,12.50
2023-03-21T15:36:22.005Z,12.50
2023-03-21T15:38:50.806Z,12.50
2023-03-21T15:41:27.593Z,12.40
2023-03-21T15:44:03.818Z,12.50
2023-03-21T15:46:41.605Z,12.40
2023-03-21T15:49:18.381Z,12.40
2023-03-21T15:51:48.713Z,12.50
2023-03-21T15:54:21.980Z,12.60
2023-03-21T15:56:51.743Z,12.60
2023-03-21T15:59:22.286Z,12.60
2023-03-21T16:01:52.309Z,12.60
2023-03-21T16:04:20.427Z,12.60
2023-03-21T16:06:59.421Z,12.60
2023-03-21T16:09:27.668Z,12.60
2023-03-21T16:11:57.374Z,12.60
2023-03-21T16:14:28.492Z,12.60
2023-03-21T16:16:57.302Z,12.60
2023-03-21T16:19:27.820Z,12.50
2023-03-21T16:21:55.697Z,12.60
2023-03-21T16:24:23.528Z,12.60
2023-03-21T16:26:53.355Z,12.60
2023-03-21T16:29:22.530Z,12.50
2023-03-21T16:31:51.799Z,12.50
2023-03-21T16:34:19.736Z,12.50
2023-03-21T16:36:48.035Z,12.50
2023-03-21T16:39:28.059Z,12.40
2023-03-21T16:41:56.218Z,12.50
2023-03-21T16:44:24.279Z,12.50
2023-03-21T16:46:53.993Z,12.50
2023-03-21T16:49:24.845Z,12.50
2023-03-21T16:51:53.824Z,12.40
2023-03-21T16:54:21.860Z,12.40
2023-03-21T16:56:52.636Z,12.40
2023-03-21T16:59:20.835Z,12.40
2023-03-21T17:01:49.021Z,12.30
2023-03-21T17:04:19.241Z,12.30
2023-03-21T17:06:49.311Z,12.20
2023-03-21T17:09:18.922Z,12.30
2023-03-21T17:11:46.853Z,12.30
2023-03-21T17:14:16.758Z,12.30
2023-03-21T17:16:45.209Z,12.30
2023-03-21T17:19:14.944Z,12.20
2023-03-21T17:21:44.527Z,12.30
2023-03-21T17:24:12.505Z,12.20
2023-03-21T17:26:40.996Z,12.20
2023-03-21T17:29:11.210Z,12.20
2023-03-21T17:31:39.149Z,12.20
2023-03-21T17:34:07.997Z,12.10
2023-03-21T17:36:38.296Z,12.10
2023-03-21T17:39:10.537Z,12.10
2023-03-21T17:41:38.399Z,12.00
2023-03-21T17:44:06.763Z,12.00
2023-03-21T17:46:37.618Z,12.00
2023-03-21T17:49:06.363Z,11.90
2023-03-21T17:51:34.231Z,11.80
2023-03-21T17:54:02.112Z,11.80
2023-03-21T17:56:33.314Z,11.80
2023-03-21T17:59:03.520Z,11.70
2023-03-21T18:01:32.096Z,11.70
2023-03-21T18:04:03.753Z,11.60
2023-03-21T18:06:33.846Z,11.60
2023-03-21T18:09:06.663Z,11.50
2023-03-21T18:11:35.886Z,11.50
2023-03-21T18:14:15.809Z,11.40
2023-03-21T18:16:45.000Z,11.30
2023-03-21T18:19:13.817Z,11.30
2023-03-21T18:21:44.817Z,11.30
2023-03-21T18:24:13.044Z,11.30
2023-03-21T18:26:42.394Z,11.30
2023-03-21T18:32:06.335Z,11.20
2023-03-21T18:34:39.332Z,11.10
2023-03-21T18:37:08.434Z,11.20
2023-03-21T18:39:37.812Z,11.10
2023-03-21T18:42:07.802Z,11.10
2023-03-21T18:44:45.569Z,11.10
2023-03-21T18:47:14.353Z,11.10
2023-03-21T18:50:13.194Z,11.20
2023-03-21T18:52:30.224Z,11.20
2023-03-21T18:54:58.525Z,11.10
2023-03-21T18:57:36.313Z,11.10
2023-03-21T19:00:12.322Z,11.10
2023-03-21T19:02:45.625Z,11.00
2023-03-21T19:05:14.758Z,10.90
2023-03-21T19:07:42.869Z,10.90
2023-03-21T19:10:18.014Z,10.90
2023-03-21T19:12:48.316Z,10.90
2023-03-21T19:15:18.658Z,10.80
2023-03-21T19:18:28.615Z,10.80
2023-03-21T19:20:34.909Z,10.80
2023-03-21T19:23:03.195Z,10.80
2023-03-21T19:25:31.027Z,10.80
2023-03-21T19:28:00.305Z,10.70
2023-03-21T19:30:28.141Z,10.70
2023-03-21T19:32:56.262Z,10.70
2023-03-21T19:35:28.254Z,10.70
2023-03-21T19:37:56.408Z,10.60
2023-03-21T19:40:24.598Z,10.60
2023-03-21T19:42:52.713Z,10.60
2023-03-21T19:45:23.381Z,10.60
2023-03-21T19:47:51.320Z,10.60
2023-03-21T19:51:13.355Z,10.70
2023-03-21T19:53:08.034Z,10.60
2023-03-21T19:55:36.397Z,10.50
2023-03-21T19:58:05.964Z,10.50
2023-03-21T20:00:37.054Z,10.50
2023-03-21T20:03:08.527Z,10.50
2023-03-21T20:05:36.722Z,10.50
2023-03-21T20:08:07.853Z,10.50
2023-03-21T20:10:38.697Z,10.50
2023-03-21T20:13:06.696Z,10.50
2023-03-21T20:15:45.867Z,10.50
2023-03-21T20:18:15.791Z,10.50
2023-03-21T20:20:43.694Z,10.40
2023-03-21T20:23:11.720Z,10.40
2023-03-21T20:25:44.892Z,10.40
2023-03-21T20:28:17.156Z,10.30
2023-03-21T20:30:56.772Z,10.30
2023-03-21T20:33:25.146Z,10.30
2023-03-21T20:38:45.565Z,10.30
2023-03-21T20:41:13.791Z,10.30
2023-03-21T20:46:31.336Z,10.30
2023-03-21T20:49:05.681Z,10.20
2023-03-21T20:54:22.443Z,10.10
2023-03-21T20:56:51.359Z,10.10
2023-03-21T20:59:27.296Z,10.00
2023-03-21T21:01:58.074Z,10.00
2023-03-21T21:04:46.723Z,9.70
2023-03-21T21:07:17.729Z,9.70
2023-03-21T21:09:46.792Z,9.60
2023-03-21T21:12:16.322Z,9.50
2023-03-21T21:14:45.329Z,9.60
2023-03-21T21:17:31.057Z,9.40
2023-03-21T21:20:12.198Z,9.30
2023-03-21T21:22:42.866Z,9.30
2023-03-21T21:25:13.886Z,9.20
2023-03-21T21:27:52.542Z,9.20
2023-03-21T21:30:20.911Z,9.20
2023-03-21T21:32:50.225Z,9.20
2023-03-21T21:35:20.412Z,9.30
2023-03-21T21:37:48.850Z,9.30
2023-03-21T21:40:20.406Z,9.40
2023-03-21T21:42:48.548Z,9.50
2023-03-21T21:45:16.951Z,9.50
2023-03-21T21:47:46.178Z,9.60
2023-03-21T21:50:16.684Z,9.50
2023-03-21T21:52:52.562Z,9.40
2023-03-21T21:55:20.769Z,9.40
2023-03-21T21:57:51.016Z,9.40
2023-03-21T22:00:20.425Z,9.40
2023-03-21T22:02:48.418Z,9.40
2023-03-21T22:05:20.946Z,9.40
2023-03-21T22:07:49.563Z,9.40
2023-03-21T22:10:17.623Z,9.40
2023-03-21T22:12:45.689Z,9.30
2023-03-21T22:15:14.344Z,9.20
2023-03-21T22:17:42.635Z,9.20
2023-03-21T22:20:12.567Z,9.20
2023-03-21T22:22:42.270Z,9.20
2023-03-21T22:25:12.425Z,9.20
2023-03-21T22:27:40.593Z,9.10
2023-03-21T22:30:13.754Z,9.20
2023-03-21T22:32:42.246Z,9.20
2023-03-21T22:35:11.261Z,9.10
2023-03-21T22:37:42.646Z,9.10
2023-03-21T22:40:13.061Z,9.10
2023-03-21T22:42:41.956Z,9.00
2023-03-21T22:45:12.281Z,9.00
2023-03-21T22:47:40.678Z,8.90
2023-03-21T22:50:09.502Z,8.90
2023-03-21T22:52:37.465Z,8.90
2023-03-21T22:55:09.629Z,8.90
2023-03-21T22:57:38.113Z,8.80
2023-03-21T23:00:12.950Z,8.70
